Time;durP1;ratioP1;P1;durP2;ratioP2;P2;SDS_P1;SDS_P2;PMS_P1;PMS_P2;Temp;Humidity;BMP_temperature;BMP_pressure;BME280_temperature;BME280_humidity;BME280_pressure;Samples;Min_cycle;Max_cycle;Signal;HPM_P1;HPM_P2
2021/10/11 00:00:27;;;;;;;16.93;9.20;;;;;;;3.21;67.93;100872.33;1696994;83;20926;-55
2021/10/11 00:02:53;;;;;;;15.27;9.27;;;;;;;3.17;67.99;100873.20;1692073;82;20891;-55
2021/10/11 00:05:21;;;;;;;14.40;10.27;;;;;;;3.13;68.14;100871.45;1694729;83;21492;-55
2021/10/11 00:07:48;;;;;;;13.97;9.17;;;;;;;3.08;68.29;100866.11;1695520;83;21495;-55
2021/10/11 00:10:20;;;;;;;12.57;6.57;;;;;;;3.04;68.34;100863.92;1687440;82;21092;-55
2021/10/11 00:12:48;;;;;;;11.67;7.37;;;;;;;3.03;68.30;100861.25;1685449;83;21086;-56
2021/10/11 00:15:15;;;;;;;15.23;6.50;;;;;;;3.01;68.29;100861.69;1686912;83;21590;-56
2021/10/11 00:17:42;;;;;;;15.30;8.73;;;;;;;2.97;68.29;100860.82;1687023;83;21114;-56
2021/10/11 00:20:10;;;;;;;11.70;7.77;;;;;;;2.94;68.44;100858.15;1688003;83;21586;-56
2021/10/11 00:22:37;;;;;;;15.60;8.33;;;;;;;2.93;68.51;100852.83;1687055;83;22423;-56
2021/10/11 00:25:06;;;;;;;12.87;8.40;;;;;;;2.92;68.46;100855.92;1687358;83;21525;-56
2021/10/11 00:27:32;;;;;;;17.10;9.00;;;;;;;2.88;68.38;100846.63;1685210;83;21098;-56
2021/10/11 00:29:59;;;;;;;16.20;8.67;;;;;;;2.84;68.49;100851.48;1685575;83;21057;-56
2021/10/11 00:32:26;;;;;;;17.40;9.90;;;;;;;2.79;68.58;100847.52;1691241;83;20959;-56
2021/10/11 00:34:52;;;;;;;14.47;7.90;;;;;;;2.78;68.69;100850.17;1685296;83;21113;-56
2021/10/11 00:37:19;;;;;;;11.20;8.00;;;;;;;2.76;68.59;100851.48;1687482;82;21154;-56
2021/10/11 00:39:45;;;;;;;13.73;8.30;;;;;;;2.70;68.57;100850.60;1685279;83;21200;-56
2021/10/11 00:44:52;;;;;;;18.77;7.93;;;;;;;2.66;68.73;100848.37;1863200;75;26636;-60
2021/10/11 00:47:18;;;;;;;21.00;7.87;;;;;;;2.59;68.82;100847.48;1835659;77;21545;-55
2021/10/11 00:49:44;;;;;;;16.53;7.97;;;;;;;2.57;68.87;100841.27;1832602;77;21146;-55
2021/10/11 00:52:11;;;;;;;16.07;6.97;;;;;;;2.59;68.96;100842.61;1832804;77;21139;-55
2021/10/11 00:54:37;;;;;;;11.87;7.57;;;;;;;2.59;69.02;100839.95;1829796;77;21096;-55
2021/10/11 00:57:03;;;;;;;11.17;7.10;;;;;;;2.59;69.03;100846.16;1831635;77;21466;-56
2021/10/11 00:59:30;;;;;;;13.83;8.10;;;;;;;2.59;69.05;100838.18;1834421;76;21438;-56
2021/10/11 01:01:56;;;;;;;13.97;8.40;;;;;;;2.59;68.98;100837.29;1831274;77;21395;-55
2021/10/11 01:04:22;;;;;;;16.60;8.77;;;;;;;2.57;68.95;100838.61;1831767;77;21070;-55
2021/10/11 01:06:49;;;;;;;14.43;7.83;;;;;;;2.56;68.99;100834.62;1833936;77;21091;-55
2021/10/11 01:09:15;;;;;;;13.70;8.80;;;;;;;2.52;68.91;100840.83;1832006;77;21009;-55
2021/10/11 01:11:42;;;;;;;11.77;8.10;;;;;;;2.48;68.89;100839.92;1833807;77;21112;-55
2021/10/11 01:14:08;;;;;;;15.13;8.27;;;;;;;2.45;68.91;100836.39;1832271;77;21108;-55
2021/10/11 01:16:35;;;;;;;13.70;9.80;;;;;;;2.40;68.91;100837.70;1834889;77;21052;-56
2021/10/11 01:19:01;;;;;;;14.50;9.43;;;;;;;2.38;69.01;100830.63;1833408;77;21041;-55
2021/10/11 01:21:28;;;;;;;15.90;8.23;;;;;;;2.34;69.19;100827.06;1834351;77;21045;-56
2021/10/11 01:23:55;;;;;;;15.53;7.90;;;;;;;2.34;69.29;100823.52;1835337;77;21065;-56
2021/10/11 01:26:21;;;;;;;15.30;7.80;;;;;;;2.36;69.28;100821.77;1834040;77;21452;-55
2021/10/11 01:28:47;;;;;;;13.80;6.20;;;;;;;2.36;69.23;100823.09;1834127;77;21786;-55
2021/10/11 01:31:14;;;;;;;11.47;7.60;;;;;;;2.37;69.27;100818.22;1831052;77;22222;-55
2021/10/11 01:33:42;;;;;;;12.83;7.13;;;;;;;2.37;69.31;100816.45;1806838;77;21064;-55
2021/10/11 01:36:08;;;;;;;14.67;7.63;;;;;;;2.38;69.34;100812.03;1811328;77;21035;-55
2021/10/11 01:38:34;;;;;;;13.07;8.43;;;;;;;2.39;69.33;100805.80;1807021;77;21108;-55
2021/10/11 01:41:00;;;;;;;14.60;9.67;;;;;;;2.37;69.19;100807.16;1810772;77;21060;-55
2021/10/11 01:43:27;;;;;;;13.60;8.23;;;;;;;2.34;69.05;100807.58;1806554;77;21134;-55
2021/10/11 01:45:53;;;;;;;12.67;8.23;;;;;;;2.30;69.04;100801.83;1808128;77;21069;-55
2021/10/11 01:48:19;;;;;;;14.13;8.80;;;;;;;2.26;69.02;100800.48;1796962;77;21064;-55
2021/10/11 01:50:45;;;;;;;15.73;9.13;;;;;;;2.22;68.95;100806.66;1794779;77;22951;-54
2021/10/11 01:53:12;;;;;;;14.43;8.40;;;;;;;2.18;68.92;100802.68;1795081;77;21091;-54
2021/10/11 01:55:38;;;;;;;17.77;9.77;;;;;;;2.10;68.96;100801.34;1804424;77;21374;-55
2021/10/11 01:58:04;;;;;;;15.13;9.17;;;;;;;2.04;69.09;100800.44;1799888;77;21059;-54
2021/10/11 02:00:31;;;;;;;15.50;9.60;;;;;;;2.00;69.19;100806.17;1794480;77;21112;-54
2021/10/11 02:02:57;;;;;;;16.97;9.37;;;;;;;1.96;69.25;100801.72;1795394;77;21147;-55
2021/10/11 02:05:24;;;;;;;18.50;10.20;;;;;;;1.93;69.24;100795.09;1796056;77;21289;-56
2021/10/11 02:07:50;;;;;;;16.70;10.43;;;;;;;1.90;69.28;100791.09;1795111;77;21079;-55
2021/10/11 02:10:16;;;;;;;18.27;11.77;;;;;;;1.86;69.40;100794.19;1797372;77;21063;-55
2021/10/11 02:12:43;;;;;;;18.40;10.47;;;;;;;1.83;69.45;100786.20;1802336;77;21052;-54
2021/10/11 02:15:09;;;;;;;19.93;11.37;;;;;;;1.82;69.59;100785.75;1796636;77;21015;-54
2021/10/11 02:17:37;;;;;;;16.27;11.27;;;;;;;1.82;69.61;100784.86;1802872;77;21822;-55
2021/10/11 02:20:05;;;;;;;18.20;11.27;;;;;;;1.82;69.57;100779.11;1798392;77;21805;-55
2021/10/11 02:22:31;;;;;;;22.70;12.37;;;;;;;1.82;69.57;100779.55;1799579;77;20940;-54
2021/10/11 02:24:58;;;;;;;20.37;12.60;;;;;;;1.80;69.65;100772.02;1801998;78;20973;-54
2021/10/11 02:27:24;;;;;;;20.87;11.63;;;;;;;1.78;69.77;100769.39;1801521;77;21719;-55
2021/10/11 02:29:50;;;;;;;15.93;11.23;;;;;;;1.78;69.87;100763.19;1799081;77;21294;-54
2021/10/11 02:32:18;;;;;;;20.60;12.00;;;;;;;1.78;69.86;100764.52;1802683;77;20913;-55
2021/10/11 02:34:45;;;;;;;18.30;12.03;;;;;;;1.76;69.67;100767.16;1800196;77;20945;-55
2021/10/11 02:37:12;;;;;;;19.43;10.93;;;;;;;1.74;69.72;100756.97;1796363;77;20957;-56
2021/10/11 02:39:38;;;;;;;19.70;14.10;;;;;;;1.74;69.80;100758.30;1803018;78;22507;-55
2021/10/11 02:42:04;;;;;;;18.17;12.13;;;;;;;1.72;69.82;100748.55;1806701;78;20859;-56
2021/10/11 02:44:32;;;;;;;25.47;15.10;;;;;;;1.69;69.78;100751.20;1810545;77;20914;-55
2021/10/11 02:46:58;;;;;;;23.60;12.87;;;;;;;1.66;69.81;100751.19;1815166;77;21455;-56
2021/10/11 02:49:25;;;;;;;23.00;14.83;;;;;;;1.65;69.95;100746.76;1817418;77;20906;-55
2021/10/11 02:51:51;;;;;;;22.70;14.47;;;;;;;1.64;70.08;100737.91;1814769;77;21067;-55
2021/10/11 02:54:17;;;;;;;24.47;14.80;;;;;;;1.65;70.14;100734.81;1817202;77;20862;-56
2021/10/11 02:56:44;;;;;;;27.63;15.97;;;;;;;1.65;70.17;100737.47;1814601;77;20961;-55
2021/10/11 02:59:11;;;;;;;28.17;17.50;;;;;;;1.64;70.17;100738.34;1814475;77;21373;-55
2021/10/11 03:01:38;;;;;;;33.50;18.20;;;;;;;1.65;70.15;100744.10;1816763;77;22131;-55
2021/10/11 03:04:04;;;;;;;26.57;15.50;;;;;;;1.65;70.20;100735.70;1816981;77;21062;-55
2021/10/11 03:06:31;;;;;;;28.63;16.23;;;;;;;1.67;70.22;100731.73;1816362;77;21258;-54
2021/10/11 03:08:57;;;;;;;35.30;17.87;;;;;;;1.67;70.31;100726.42;1812283;77;21063;-56
2021/10/11 03:11:23;;;;;;;21.57;16.23;;;;;;;1.68;70.25;100722.45;1807617;77;21473;-55
2021/10/11 03:13:49;;;;;;;29.27;16.23;;;;;;;1.66;70.08;100723.31;1810403;77;22700;-56
2021/10/11 03:16:16;;;;;;;29.33;16.27;;;;;;;1.63;70.06;100716.66;1811297;77;21494;-55
2021/10/11 03:18:42;;;;;;;21.93;16.33;;;;;;;1.64;70.17;100717.11;1811375;77;21033;-55
2021/10/11 03:21:09;;;;;;;24.63;16.00;;;;;;;1.61;70.21;100710.05;1810689;77;21024;-54
2021/10/11 03:23:35;;;;;;;27.00;17.87;;;;;;;1.63;70.23;100714.01;1809881;77;21059;-55
2021/10/11 03:26:02;;;;;;;25.60;15.63;;;;;;;1.63;70.14;100717.98;1815564;77;21103;-56
2021/10/11 03:28:28;;;;;;;23.50;16.27;;;;;;;1.63;70.11;100717.98;1810174;77;21088;-56
2021/10/11 03:30:54;;;;;;;23.80;15.57;;;;;;;1.61;70.09;100713.14;1811729;77;22035;-55
2021/10/11 03:33:21;;;;;;;24.90;14.70;;;;;;;1.60;70.09;100708.72;1811296;77;22003;-55
2021/10/11 03:35:47;;;;;;;22.70;14.07;;;;;;;1.58;70.05;100705.16;1815253;77;21519;-55
2021/10/11 03:38:13;;;;;;;21.00;15.17;;;;;;;1.56;69.94;100708.24;1814029;77;21413;-56
2021/10/11 03:40:40;;;;;;;24.47;15.90;;;;;;;1.51;69.85;100707.80;1816797;77;21088;-55
2021/10/11 03:43:06;;;;;;;24.50;14.77;;;;;;;1.48;69.80;100705.13;1809778;77;21088;-56
2021/10/11 03:45:32;;;;;;;25.93;17.07;;;;;;;1.43;69.83;100701.59;1817109;76;21123;-55
2021/10/11 03:47:58;;;;;;;25.07;14.77;;;;;;;1.41;70.02;100701.13;1819430;76;21478;-55
2021/10/11 03:50:25;;;;;;;32.83;17.63;;;;;;;1.40;70.14;100701.56;1817780;76;21444;-56
2021/10/11 03:52:52;;;;;;;23.47;15.53;;;;;;;1.40;70.23;100700.23;1817053;76;21151;-55
2021/10/11 03:55:18;;;;;;;26.47;16.87;;;;;;;1.38;70.24;100698.01;1816589;76;21449;-56
2021/10/11 03:57:45;;;;;;;27.43;16.67;;;;;;;1.39;70.26;100701.11;1819679;76;21065;-56
2021/10/11 04:00:11;;;;;;;29.43;18.37;;;;;;;1.38;70.25;100696.69;1817486;76;21037;-56
2021/10/11 04:02:38;;;;;;;28.27;18.43;;;;;;;1.37;70.19;100696.67;1784593;78;21060;-56
2021/10/11 04:05:06;;;;;;;26.50;18.53;;;;;;;1.33;70.22;100699.77;1780914;78;21108;-56
2021/10/11 04:07:33;;;;;;;23.70;16.43;;;;;;;1.31;70.22;100696.66;1779213;78;21424;-56
2021/10/11 04:10:02;;;;;;;23.57;17.07;;;;;;;1.29;70.28;100693.10;1776220;78;22420;-55
2021/10/11 04:12:35;;;;;;;23.37;15.40;;;;;;;1.26;70.32;100695.33;1752962;80;20989;-55
2021/10/11 04:15:05;;;;;;;24.20;16.70;;;;;;;1.25;70.40;100687.36;1779987;78;20957;-55
2021/10/11 04:17:31;;;;;;;28.10;17.63;;;;;;;1.25;70.48;100683.38;1784065;78;22138;-56
2021/10/11 04:19:58;;;;;;;86.27;21.50;;;;;;;1.24;70.54;100682.49;1784508;78;20901;-56
2021/10/11 04:22:24;;;;;;;35.50;17.03;;;;;;;1.25;70.66;100678.97;1774313;78;21015;-56
2021/10/11 04:25:57;;;;;;;33.13;17.90;;;;;;;1.29;70.74;100670.12;1789098;78;26956;-56
2021/10/11 04:28:23;;;;;;;29.73;18.63;;;;;;;1.27;70.70;100673.67;1770707;80;20997;-56
2021/10/11 04:30:51;;;;;;;30.87;18.83;;;;;;;1.28;70.62;100680.28;1770428;80;21152;-56
2021/10/11 04:33:17;;;;;;;32.13;19.70;;;;;;;1.31;70.53;100679.41;1743273;80;20866;-56
2021/10/11 04:35:45;;;;;;;32.27;18.60;;;;;;;1.31;70.58;100684.28;1749257;80;21101;-56
2021/10/11 04:38:12;;;;;;;31.00;19.13;;;;;;;1.30;70.71;100674.55;1742342;80;20961;-56
2021/10/11 04:40:38;;;;;;;26.50;18.20;;;;;;;1.31;70.81;100676.77;1740305;80;20907;-56
2021/10/11 04:43:04;;;;;;;35.57;21.03;;;;;;;1.32;70.90;100671.47;1741218;80;21115;-56
2021/10/11 04:45:33;;;;;;;30.63;19.77;;;;;;;1.33;70.90;100671.92;1740736;80;21002;-57
2021/10/11 04:48:05;;;;;;;34.50;22.17;;;;;;;1.35;70.98;100667.52;1738930;80;21353;-57
2021/10/11 04:50:33;;;;;;;34.73;21.57;;;;;;;1.37;71.09;100660.86;1743763;80;20965;-57
2021/10/11 04:53:00;;;;;;;32.73;20.13;;;;;;;1.41;71.18;100663.98;1743296;80;21068;-57
2021/10/11 04:55:26;;;;;;;29.77;18.33;;;;;;;1.44;71.19;100658.27;1738670;80;21491;-57
2021/10/11 04:57:53;;;;;;;32.10;19.33;;;;;;;1.47;71.33;100655.59;1736150;80;21061;-57
2021/10/11 05:00:19;;;;;;;30.30;20.77;;;;;;;1.50;71.38;100652.96;1737072;80;21077;-57
2021/10/11 05:02:46;;;;;;;34.87;21.27;;;;;;;1.54;71.26;100657.81;1739232;80;21490;-57
2021/10/11 05:05:13;;;;;;;31.37;18.50;;;;;;;1.57;71.19;100652.53;1731393;80;21088;-57
2021/10/11 05:07:39;;;;;;;30.87;19.83;;;;;;;1.61;71.20;100649.02;1737591;80;22385;-57
2021/10/11 05:10:06;;;;;;;26.73;19.17;;;;;;;1.67;71.27;100646.36;1739626;80;21383;-57
2021/10/11 05:12:33;;;;;;;36.23;21.43;;;;;;;1.73;71.18;100653.44;1740962;80;20930;-57
2021/10/11 05:15:00;;;;;;;30.27;20.80;;;;;;;1.78;71.25;100653.91;1742086;80;21338;-57
2021/10/11 05:17:26;;;;;;;46.47;22.60;;;;;;;1.87;71.37;100649.91;1742747;80;20981;-57
2021/10/11 05:19:53;;;;;;;50.63;23.00;;;;;;;1.97;71.50;100650.81;1744714;80;21072;-58
2021/10/11 05:22:19;;;;;;;57.50;23.77;;;;;;;2.10;71.61;100636.67;1741616;80;20961;-58
2021/10/11 05:24:46;;;;;;;53.73;22.67;;;;;;;2.23;71.55;100634.44;1733096;80;20931;-58
2021/10/11 05:27:12;;;;;;;62.07;25.47;;;;;;;2.36;71.53;100630.45;1717448;81;20994;-57
2021/10/11 05:29:38;;;;;;;51.67;23.83;;;;;;;2.48;71.60;100629.09;1718697;81;20923;-57
2021/10/11 05:32:06;;;;;;;51.00;22.80;;;;;;;2.62;71.51;100635.29;1721108;81;21771;-57
2021/10/11 05:34:32;;;;;;;34.97;19.97;;;;;;;2.75;71.42;100628.16;1697154;81;20946;-56
2021/10/11 05:36:59;;;;;;;47.03;20.90;;;;;;;2.87;71.38;100629.02;1718363;81;20864;-56
2021/10/11 05:39:25;;;;;;;31.10;17.50;;;;;;;2.99;71.41;100624.97;1720419;81;20906;-56
2021/10/11 05:41:52;;;;;;;31.40;16.50;;;;;;;3.14;71.52;100627.14;1716748;81;20906;-56
2021/10/11 05:44:18;;;;;;;28.17;14.20;;;;;;;3.31;71.53;100628.84;1723106;81;21752;-56
2021/10/11 05:46:44;;;;;;;27.20;14.03;;;;;;;3.50;71.57;100626.05;1645240;85;21422;-56
2021/10/11 05:49:11;;;;;;;27.37;14.93;;;;;;;3.67;71.55;100625.50;1720566;81;20903;-55
2021/10/11 05:51:38;;;;;;;24.03;14.60;;;;;;;3.86;71.52;100620.50;1720954;81;21280;-56
2021/10/11 05:54:04;;;;;;;30.87;15.33;;;;;;;4.04;71.58;100619.47;1717716;81;20967;-56
2021/10/11 05:56:30;;;;;;;24.67;14.67;;;;;;;4.20;71.59;100634.44;1719149;81;21102;-56
2021/10/11 05:58:57;;;;;;;28.53;15.43;;;;;;;4.35;71.49;100633.41;1721241;81;20903;-55
2021/10/11 06:01:23;;;;;;;37.13;15.20;;;;;;;4.51;71.23;100628.36;1717095;81;21444;-56
2021/10/11 06:03:49;;;;;;;35.17;15.77;;;;;;;4.68;70.90;100632.23;1717596;81;21864;-56
2021/10/11 06:06:16;;;;;;;37.57;17.00;;;;;;;4.85;70.53;100627.11;1717847;81;21101;-55
2021/10/11 06:08:43;;;;;;;23.97;15.53;;;;;;;5.00;70.26;100635.42;1720075;81;21532;-55
2021/10/11 06:11:16;;;;;;;29.43;15.83;;;;;;;5.13;69.97;100631.69;1722703;81;21334;-56
2021/10/11 06:13:43;;;;;;;30.83;16.17;;;;;;;5.26;69.62;100637.32;1718295;82;20935;-56
2021/10/11 06:16:11;;;;;;;31.13;16.13;;;;;;;5.39;69.18;100633.14;1715826;82;21602;-56
2021/10/11 06:18:37;;;;;;;24.27;14.80;;;;;;;5.51;68.63;100631.20;1716811;82;21164;-56
2021/10/11 06:21:04;;;;;;;30.57;17.03;;;;;;;5.64;67.98;100629.23;1716142;81;22596;-56
2021/10/11 06:23:30;;;;;;;29.60;14.60;;;;;;;5.76;67.40;100628.18;1715156;81;21070;-57
2021/10/11 06:25:56;;;;;;;28.50;16.07;;;;;;;5.87;66.84;100623.08;1721497;80;21436;-56
2021/10/11 06:28:23;;;;;;;28.80;17.73;;;;;;;5.99;66.29;100628.28;1724492;80;21073;-56
2021/10/11 06:30:49;;;;;;;39.93;17.73;;;;;;;6.10;65.84;100623.23;1727872;80;21130;-56
2021/10/11 06:33:16;;;;;;;30.30;15.50;;;;;;;6.19;65.33;100622.63;1725962;80;21147;-56
2021/10/11 06:35:43;;;;;;;34.47;17.00;;;;;;;6.29;64.84;100625.58;1730850;80;21327;-56
2021/10/11 06:38:11;;;;;;;35.30;16.47;;;;;;;6.37;64.47;100622.31;1655768;85;20919;-56
2021/10/11 06:40:37;;;;;;;36.90;15.97;;;;;;;6.45;64.15;100615.05;1733492;80;21027;-56
2021/10/11 06:43:04;;;;;;;27.60;14.33;;;;;;;6.58;63.88;100616.14;1734614;80;21061;-56
2021/10/11 06:45:31;;;;;;;28.87;14.03;;;;;;;6.71;63.76;100611.00;1732694;81;21125;-55
2021/10/11 06:47:58;;;;;;;39.20;18.90;;;;;;;6.85;63.37;100602.24;1738133;80;20958;-56
2021/10/11 06:50:25;;;;;;;44.00;24.20;;;;;;;6.99;62.89;100586.78;1732578;80;20963;-55
2021/10/11 06:52:51;;;;;;;52.73;22.27;;;;;;;7.13;62.71;100579.37;1718025;80;21093;-56
2021/10/11 06:55:17;;;;;;;90.93;40.37;;;;;;;7.29;62.36;100585.27;1729520;80;21050;-56
2021/10/11 06:57:43;;;;;;;121.80;53.27;;;;;;;7.42;62.14;100582.73;1724469;80;21089;-56
2021/10/11 07:00:12;;;;;;;143.17;67.37;;;;;;;7.56;61.93;100585.13;1723206;80;21069;-57
2021/10/11 07:02:39;;;;;;;51.20;25.37;;;;;;;7.68;61.39;100586.62;1728971;81;21034;-58
2021/10/11 07:05:10;;;;;;;76.13;35.77;;;;;;;7.79;60.64;100576.54;1731100;80;21096;-56
2021/10/11 07:07:44;;;;;;;69.73;31.07;;;;;;;7.89;60.12;100579.42;1721948;80;21148;-56
2021/10/11 07:10:09;;;;;;;48.60;22.57;;;;;;;7.99;59.66;100575.61;1726484;80;21053;-56
2021/10/11 07:12:36;;;;;;;32.97;19.53;;;;;;;8.10;59.06;100573.52;1730767;80;21485;-56
2021/10/11 07:15:04;;;;;;;36.00;15.83;;;;;;;8.18;58.84;100574.66;1720141;81;22328;-56
2021/10/11 07:17:30;;;;;;;32.43;16.13;;;;;;;8.26;58.80;100567.30;1723103;80;20953;-57
2021/10/11 07:19:56;;;;;;;34.93;16.03;;;;;;;8.34;58.48;100567.55;1729509;80;21333;-57
2021/10/11 07:22:22;;;;;;;32.87;16.43;;;;;;;8.43;58.29;100562.86;1730129;80;21595;-56
2021/10/11 07:24:49;;;;;;;34.17;15.40;;;;;;;8.51;58.17;100562.20;1724765;80;21278;-58
2021/10/11 07:27:15;;;;;;;30.97;16.07;;;;;;;8.55;58.19;100559.41;1725326;80;21093;-57
2021/10/11 07:29:42;;;;;;;31.77;16.70;;;;;;;8.62;58.26;100564.14;1725238;80;21046;-56
2021/10/11 07:32:08;;;;;;;41.20;17.73;;;;;;;8.69;58.00;100560.36;1729301;80;21121;-56
2021/10/11 07:34:35;;;;;;;28.90;15.67;;;;;;;8.75;57.98;100560.21;1725541;80;21073;-57
2021/10/11 07:37:02;;;;;;;36.70;17.17;;;;;;;8.80;57.79;100556.04;1724374;80;21086;-56
2021/10/11 07:39:28;;;;;;;25.60;13.63;;;;;;;8.86;57.83;100550.03;1729595;80;21050;-56
2021/10/11 07:41:55;;;;;;;24.70;13.27;;;;;;;8.93;57.62;100546.73;1652524;84;21062;-57
2021/10/11 07:44:21;;;;;;;21.63;12.33;;;;;;;9.00;57.21;100546.96;1677111;83;21052;-57
2021/10/11 07:46:52;;;;;;;26.83;14.60;;;;;;;9.09;56.88;100550.27;1674431;83;21137;-57
2021/10/11 07:49:15;;;;;;;30.60;11.97;;;;;;;9.17;56.71;100543.78;1674579;83;21746;-57
2021/10/11 07:51:42;;;;;;;23.10;11.07;;;;;;;9.26;56.39;100539.47;1680485;83;21077;-56
2021/10/11 07:54:08;;;;;;;20.37;9.40;;;;;;;9.36;56.16;100544.49;1677227;83;21096;-55
2021/10/11 07:56:37;;;;;;;16.67;9.10;;;;;;;9.48;55.30;100536.06;1681432;83;21318;-57
2021/10/11 07:59:03;;;;;;;15.37;7.73;;;;;;;9.62;54.29;100530.23;1683817;83;21157;-57
2021/10/11 08:01:30;;;;;;;11.63;6.73;;;;;;;9.74;53.83;100524.48;1684393;83;20902;-56
2021/10/11 08:03:56;;;;;;;18.70;8.10;;;;;;;9.87;53.09;100523.59;1730269;80;20981;-57
2021/10/11 08:06:23;;;;;;;18.00;13.27;;;;;;;9.98;52.84;100527.28;1730918;80;20951;-57
2021/10/11 08:08:49;;;;;;;17.30;13.80;;;;;;;10.09;52.43;100515.24;1731056;80;21010;-57
2021/10/11 08:11:15;;;;;;;19.33;9.57;;;;;;;10.20;52.17;100517.61;1722418;80;21112;-56
2021/10/11 08:13:41;;;;;;;11.93;6.23;;;;;;;10.31;52.08;100519.44;1726914;80;20927;-56
2021/10/11 08:16:09;;;;;;;16.12;8.00;;;;;;;10.40;51.39;100510.16;1728568;80;20915;-57
2021/10/11 08:18:35;;;;;;;14.18;8.35;;;;;;;10.48;51.02;100510.77;1662374;81;20903;-56
2021/10/11 08:21:01;;;;;;;22.77;8.58;;;;;;;10.56;50.68;100504.17;1729215;80;20950;-55
2021/10/11 08:23:28;;;;;;;8.68;4.85;;;;;;;10.66;50.19;100499.80;1730017;81;20896;-56
2021/10/11 08:25:54;;;;;;;9.83;5.33;;;;;;;10.74;49.26;100497.70;1729777;80;21425;-57
2021/10/11 08:28:20;;;;;;;10.28;4.70;;;;;;;10.82;49.00;100495.59;1729866;80;21395;-58
2021/10/11 08:30:47;;;;;;;9.98;4.87;;;;;;;10.90;48.55;100486.77;1727334;80;21365;-57
2021/10/11 08:33:13;;;;;;;9.43;6.12;;;;;;;10.95;48.27;100487.48;1732021;80;21615;-56
2021/10/11 08:35:40;;;;;;;21.75;6.95;;;;;;;11.03;48.21;100477.29;1726329;80;21901;-58
2021/10/11 08:38:06;;;;;;;16.27;7.20;;;;;;;11.12;48.23;100474.71;1727163;80;21861;-58
2021/10/11 08:40:32;;;;;;;18.65;8.73;;;;;;;11.19;48.24;100475.75;1662428;84;21765;-57
2021/10/11 08:42:59;;;;;;;11.97;8.20;;;;;;;11.28;48.62;100469.12;1662601;84;20935;-56
2021/10/11 08:45:25;;;;;;;11.70;8.80;;;;;;;11.35;48.63;100470.16;1728712;80;20935;-57
2021/10/11 08:47:52;;;;;;;10.03;8.30;;;;;;;11.44;48.54;100463.98;1727442;80;21088;-56
2021/10/11 08:50:18;;;;;;;10.25;7.85;;;;;;;11.53;48.39;100459.11;1688436;82;22525;-58
2021/10/11 08:52:46;;;;;;;15.20;8.18;;;;;;;11.62;48.18;100461.89;1726195;80;21053;-58
2021/10/11 08:55:13;;;;;;;14.03;6.92;;;;;;;11.68;48.10;100465.20;1726412;80;21362;-57
2021/10/11 08:57:39;;;;;;;8.15;5.08;;;;;;;11.77;48.09;100459.94;1726312;80;21364;-58
2021/10/11 09:00:16;;;;;;;9.00;5.42;;;;;;;11.85;47.20;100457.80;1724099;81;21332;-57
2021/10/11 09:02:53;;;;;;;7.37;4.92;;;;;;;11.92;47.07;100451.19;1722906;80;21061;-57
2021/10/11 09:05:33;;;;;;;6.72;4.37;;;;;;;11.99;46.63;100443.23;1726593;81;21046;-58
2021/10/11 09:08:07;;;;;;;11.45;4.50;;;;;;;12.08;46.45;100452.75;1734039;81;21366;-59
2021/10/11 09:10:55;;;;;;;7.83;4.90;;;;;;;12.17;46.29;100441.56;1734552;81;21039;-58
2021/10/11 09:13:28;;;;;;;6.60;5.20;;;;;;;12.24;46.00;100438.14;1729454;81;21141;-56
2021/10/11 09:16:12;;;;;;;7.92;4.60;;;;;;;12.31;46.00;100433.75;1728872;80;21114;-57
2021/10/11 09:18:48;;;;;;;7.12;4.22;;;;;;;12.38;45.54;100434.34;1730534;80;21062;-57
2021/10/11 09:21:11;;;;;;;12.83;4.23;;;;;;;12.42;44.78;100427.37;1734541;81;21627;-57
2021/10/11 09:23:38;;;;;;;7.22;3.92;;;;;;;12.45;44.61;100418.27;1733814;81;21109;-56
2021/10/11 09:26:19;;;;;;;6.80;4.70;;;;;;;12.49;44.52;100417.20;1738040;80;22600;-57
2021/10/11 09:28:53;;;;;;;7.90;4.47;;;;;;;12.54;44.66;100412.92;1737474;81;21108;-57
2021/10/11 09:34:00;;;;;;;14.93;5.87;;;;;;;12.70;44.30;100404.04;1857519;75;22648;-57
2021/10/11 09:36:29;;;;;;;8.33;5.25;;;;;;;12.72;44.11;100401.27;1814657;77;21459;-57
2021/10/11 09:38:59;;;;;;;7.03;5.22;;;;;;;12.77;43.53;100403.27;1799302;77;21138;-57
2021/10/11 09:41:26;;;;;;;8.15;4.45;;;;;;;12.80;43.55;100406.72;1807722;77;21577;-57
2021/10/11 09:43:53;;;;;;;6.60;3.33;;;;;;;12.85;43.68;100407.37;1805903;77;20933;-57
2021/10/11 09:46:21;;;;;;;6.47;4.58;;;;;;;12.89;43.58;100400.88;1801237;77;21553;-58
2021/10/11 09:48:57;;;;;;;7.72;4.25;;;;;;;12.95;43.56;100399.70;1764199;78;21032;-57
2021/10/11 09:51:24;;;;;;;12.43;5.78;;;;;;;13.00;43.28;100394.09;1764527;78;21665;-57
2021/10/11 09:53:53;;;;;;;11.25;6.80;;;;;;;13.07;43.48;100393.73;1761195;78;20972;-57
2021/10/11 09:56:20;;;;;;;9.98;4.00;;;;;;;13.12;43.29;100391.66;1766966;78;20874;-57
2021/10/11 09:58:47;;;;;;;8.70;4.05;;;;;;;13.13;43.37;100385.78;1760955;78;21613;-58
2021/10/11 10:01:13;;;;;;;8.28;3.20;;;;;;;13.15;42.72;100378.52;1755593;78;21077;-56
2021/10/11 10:03:39;;;;;;;5.80;2.77;;;;;;;13.17;42.73;100377.98;1755894;78;21260;-56
2021/10/11 10:06:07;;;;;;;5.95;2.95;;;;;;;13.20;42.69;100374.62;1759341;78;21485;-57
2021/10/11 10:08:33;;;;;;;6.90;3.67;;;;;;;13.25;42.31;100376.66;1759731;78;21045;-59
2021/10/11 10:11:00;;;;;;;5.45;2.87;;;;;;;13.29;42.12;100363.84;1755127;78;21053;-57
2021/10/11 10:13:27;;;;;;;6.62;3.30;;;;;;;13.33;42.36;100358.70;1753777;78;22271;-57
2021/10/11 10:15:57;;;;;;;4.97;2.47;;;;;;;13.38;42.13;100366.56;1755937;78;21519;-58
2021/10/11 10:18:24;;;;;;;11.97;3.65;;;;;;;13.43;41.74;100361.81;1753540;78;21104;-57
2021/10/11 10:20:59;;;;;;;6.58;3.15;;;;;;;13.47;41.85;100362.05;1757851;78;21092;-58
2021/10/11 10:23:29;;;;;;;4.85;3.02;;;;;;;13.54;41.88;100356.72;1752601;78;21041;-58
2021/10/11 10:25:58;;;;;;;11.05;3.08;;;;;;;13.60;42.04;100350.55;1757918;78;21078;-58
2021/10/11 10:28:25;;;;;;;5.72;3.58;;;;;;;13.66;41.55;100343.94;1756902;78;23134;-57
2021/10/11 10:31:00;;;;;;;3.95;3.25;;;;;;;13.71;41.48;100343.20;1755061;78;20974;-58
2021/10/11 10:33:36;;;;;;;5.78;2.90;;;;;;;13.74;41.56;100339.00;1734203;80;21487;-57
2021/10/11 10:36:05;;;;;;;3.85;3.02;;;;;;;13.79;41.45;100340.09;1725794;80;21873;-57
2021/10/11 10:38:31;;;;;;;5.87;4.30;;;;;;;13.83;41.59;100339.00;1733381;80;21085;-57
2021/10/11 10:40:58;;;;;;;5.22;3.40;;;;;;;13.87;41.74;100333.80;1737800;80;21121;-58
2021/10/11 10:43:24;;;;;;;7.72;4.25;;;;;;;13.87;41.63;100336.03;1728430;80;21069;-57
2021/10/11 10:45:52;;;;;;;8.15;4.35;;;;;;;13.89;41.54;100327.37;1721910;80;21076;-58
2021/10/11 10:48:23;;;;;;;4.15;3.08;;;;;;;13.89;41.46;100331.42;1720720;80;22631;-59
2021/10/11 10:50:51;;;;;;;6.55;3.77;;;;;;;13.88;41.20;100328.80;1733621;80;20957;-58
2021/10/11 10:53:18;;;;;;;3.72;2.60;;;;;;;13.88;41.00;100320.20;1733120;80;21064;-57
2021/10/11 10:55:44;;;;;;;5.97;3.33;;;;;;;13.91;40.92;100313.77;1733903;80;20961;-57
2021/10/11 10:58:13;;;;;;;4.37;3.37;;;;;;;13.92;41.19;100312.81;1731671;80;20972;-57
2021/10/11 11:00:40;;;;;;;7.70;2.92;;;;;;;13.94;41.04;100306.84;1731317;80;20920;-59
2021/10/11 11:03:12;;;;;;;4.97;3.90;;;;;;;13.97;40.81;100301.25;1734639;80;20960;-58
2021/10/11 11:05:40;;;;;;;3.47;2.20;;;;;;;13.97;40.57;100285.88;1732383;80;21036;-58
2021/10/11 11:08:08;;;;;;;2.52;1.85;;;;;;;13.98;40.81;100283.58;1730886;80;21262;-57
2021/10/11 11:10:37;;;;;;;7.83;2.40;;;;;;;14.01;40.96;100286.12;1734115;80;21440;-59
2021/10/11 11:13:14;;;;;;;5.33;1.97;;;;;;;14.01;40.48;100284.78;1721683;81;20990;-58
2021/10/11 11:15:39;;;;;;;5.40;2.05;;;;;;;14.04;40.53;100279.66;1733141;80;20964;-59
2021/10/11 11:18:10;;;;;;;9.10;1.82;;;;;;;14.07;40.63;100274.56;1733765;80;21022;-56
2021/10/11 11:20:39;;;;;;;2.85;1.95;;;;;;;14.10;40.75;100267.16;1734219;80;20917;-59
2021/10/11 11:23:20;;;;;;;4.20;1.98;;;;;;;14.13;40.40;100260.20;1735112;80;20890;-58
2021/10/11 11:25:48;;;;;;;9.03;2.00;;;;;;;14.16;40.40;100254.64;1736243;80;20964;-58